createdAt,value
2022-10-22T00:01:12.647Z,98711.34
2022-10-22T00:03:45.464Z,98717.56
2022-10-22T00:06:19.676Z,98728.97
2022-10-22T00:08:52.887Z,98730.59
2022-10-22T00:11:25.968Z,98730.13
2022-10-22T00:13:59.372Z,98729.94
2022-10-22T00:16:32.195Z,98734.25
2022-10-22T00:19:05.004Z,98740.38
2022-10-22T00:21:39.206Z,98744.31
2022-10-22T00:24:11.979Z,98749.47
2022-10-22T00:26:45.054Z,98748.13
2022-10-22T00:29:19.967Z,98750.69
2022-10-22T00:31:52.971Z,98767.19
2022-10-22T00:34:27.941Z,98763.16
2022-10-22T00:37:02.135Z,98771.09
2022-10-22T00:39:35.085Z,98780.81
2022-10-22T00:42:07.897Z,98784.13
2022-10-22T00:45:06.160Z,98790.16
2022-10-22T00:47:42.391Z,98789.03
2022-10-22T00:50:24.451Z,98786.16
2022-10-22T00:52:59.301Z,98787.00
2022-10-22T00:55:33.905Z,98792.28
2022-10-22T00:58:06.816Z,98802.50
2022-10-22T01:00:39.977Z,98809.72
2022-10-22T01:03:12.958Z,98807.94
2022-10-22T01:05:58.207Z,98823.13
2022-10-22T01:08:40.730Z,98823.38
2022-10-22T01:11:22.837Z,98824.50
2022-10-22T01:14:05.920Z,98830.81
2022-10-22T01:16:45.828Z,98845.25
2022-10-22T01:19:36.901Z,98841.19
2022-10-22T01:22:20.111Z,98851.53
2022-10-22T01:25:01.364Z,98842.56
2022-10-22T01:27:45.490Z,98850.13
2022-10-22T01:30:20.307Z,98861.19
2022-10-22T01:32:58.060Z,98864.31
2022-10-22T01:37:31.028Z,98867.63
2022-10-22T01:40:04.709Z,98871.38
2022-10-22T01:42:37.546Z,98869.47
2022-10-22T01:45:13.653Z,98865.31
2022-10-22T01:48:00.296Z,98872.69
2022-10-22T01:50:54.132Z,98879.38
2022-10-22T01:53:38.558Z,98882.91
2022-10-22T01:56:25.909Z,98886.38
2022-10-22T01:59:08.250Z,98878.41
2022-10-22T02:01:50.184Z,98882.81
2022-10-22T02:04:29.134Z,98894.00
2022-10-22T02:07:07.445Z,98892.53
2022-10-22T02:09:43.152Z,98894.19
2022-10-22T02:12:18.862Z,98899.91
2022-10-22T02:14:53.351Z,98907.44
2022-10-22T02:17:30.168Z,98903.63
2022-10-22T02:20:07.177Z,98908.53
2022-10-22T02:22:40.306Z,98912.91
2022-10-22T02:25:14.782Z,98918.38
2022-10-22T02:27:51.149Z,98914.09
2022-10-22T02:30:24.522Z,98912.31
2022-10-22T02:33:03.646Z,98920.38
2022-10-22T02:35:38.163Z,98923.13
2022-10-22T02:38:12.643Z,98931.25
2022-10-22T02:40:47.919Z,98930.50
2022-10-22T02:43:20.965Z,98939.72
2022-10-22T02:45:53.944Z,98944.44
2022-10-22T02:48:27.005Z,98943.69
2022-10-22T02:50:59.826Z,98943.97
2022-10-22T02:53:32.646Z,98946.25
2022-10-22T02:56:07.320Z,98946.53
2022-10-22T02:58:40.154Z,98954.22
2022-10-22T03:01:15.389Z,98957.22
2022-10-22T03:03:49.128Z,98957.75
2022-10-22T03:06:21.966Z,98954.66
2022-10-22T03:08:54.852Z,98962.19
2022-10-22T03:11:29.073Z,98964.44
2022-10-22T03:14:01.876Z,98974.66
2022-10-22T03:16:34.745Z,98966.56
2022-10-22T03:19:07.557Z,98969.84
2022-10-22T03:21:45.181Z,98978.53
2022-10-22T03:24:22.716Z,98994.38
2022-10-22T03:26:57.232Z,99007.56
2022-10-22T03:29:32.619Z,99000.38
2022-10-22T03:32:05.669Z,99011.00
2022-10-22T03:34:38.501Z,99011.13
2022-10-22T03:37:12.188Z,99011.22
2022-10-22T03:39:45.293Z,99009.44
2022-10-22T03:42:19.684Z,99019.84
2022-10-22T03:44:52.562Z,99019.66
2022-10-22T03:47:25.506Z,99032.25
2022-10-22T03:49:58.326Z,99025.38
2022-10-22T03:52:37.265Z,99042.16
2022-10-22T03:55:10.739Z,99031.47
2022-10-22T03:57:44.921Z,99043.59
2022-10-22T04:00:17.939Z,99052.41
2022-10-22T04:02:50.828Z,99059.03
2022-10-22T04:05:23.606Z,99070.91
2022-10-22T04:07:56.439Z,99067.13
2022-10-22T04:10:29.270Z,99075.78
2022-10-22T04:13:03.489Z,99075.31
2022-10-22T04:15:36.375Z,99075.91
2022-10-22T04:18:09.218Z,99079.97
2022-10-22T04:20:42.917Z,99085.78
2022-10-22T04:23:15.997Z,99090.06
2022-10-22T04:25:48.779Z,99080.06
2022-10-22T04:28:22.977Z,99096.69
2022-10-22T04:30:55.774Z,99086.19
2022-10-22T04:33:28.723Z,99092.06
2022-10-22T04:36:03.042Z,99100.59
2022-10-22T04:38:35.898Z,99098.28
2022-10-22T04:41:13.614Z,99092.69
2022-10-22T04:43:48.299Z,99098.50
2022-10-22T04:46:21.742Z,99089.25
2022-10-22T04:48:54.732Z,99094.72
2022-10-22T04:51:28.890Z,99103.53
2022-10-22T04:54:02.590Z,99106.66
2022-10-22T04:56:35.416Z,99112.47
2022-10-22T04:59:12.661Z,99116.00
2022-10-22T05:01:46.020Z,99123.16
2022-10-22T05:04:20.466Z,99119.97
2022-10-22T05:06:53.307Z,99129.44
2022-10-22T05:09:26.133Z,99133.19
2022-10-22T05:11:58.962Z,99138.19
2022-10-22T05:14:33.916Z,99131.88
2022-10-22T05:17:06.734Z,99141.47
2022-10-22T05:19:39.580Z,99140.81
2022-10-22T05:22:12.377Z,99145.59
2022-10-22T05:24:45.237Z,99148.28
2022-10-22T05:29:53.263Z,99157.53
2022-10-22T05:32:26.136Z,99159.97
2022-10-22T05:34:58.949Z,99162.81
2022-10-22T05:37:31.803Z,99168.44
2022-10-22T05:40:19.086Z,99164.72
2022-10-22T05:42:52.508Z,99175.75
2022-10-22T05:45:26.736Z,99172.69
2022-10-22T05:47:59.534Z,99175.25
2022-10-22T05:50:32.478Z,99177.16
2022-10-22T05:53:06.519Z,99171.25
2022-10-22T05:55:40.634Z,99186.44
2022-10-22T05:58:14.023Z,99185.22
2022-10-22T06:00:48.370Z,99195.34
2022-10-22T06:03:21.281Z,99199.00
2022-10-22T06:05:54.110Z,99208.34
2022-10-22T06:08:27.147Z,99213.19
2022-10-22T06:11:00.759Z,99210.00
2022-10-22T06:13:33.686Z,99213.56
2022-10-22T06:16:08.278Z,99220.75
2022-10-22T06:18:41.296Z,99223.69
2022-10-22T06:21:16.497Z,99225.16
2022-10-22T06:23:49.276Z,99220.06
2022-10-22T06:26:22.084Z,99229.69
2022-10-22T06:28:55.812Z,99233.88
2022-10-22T06:31:36.551Z,99238.28
2022-10-22T06:34:12.832Z,99247.75
2022-10-22T06:36:46.591Z,99244.34
2022-10-22T06:39:19.504Z,99236.16
2022-10-22T06:41:52.318Z,99246.91
2022-10-22T06:44:25.119Z,99255.63
2022-10-22T06:46:59.381Z,99257.69
2022-10-22T06:49:32.191Z,99248.59
2022-10-22T06:52:05.048Z,99260.91
2022-10-22T06:54:38.185Z,99259.34
2022-10-22T06:57:11.004Z,99260.41
2022-10-22T06:59:43.810Z,99270.94
2022-10-22T07:02:18.062Z,99269.19
2022-10-22T07:04:50.909Z,99273.97
2022-10-22T07:07:23.729Z,99275.94
2022-10-22T07:09:56.559Z,99278.22
2022-10-22T07:12:29.418Z,99284.53
2022-10-22T07:15:02.311Z,99287.56
2022-10-22T07:17:36.691Z,99292.50
2022-10-22T07:20:10.715Z,99302.00
2022-10-22T07:22:43.729Z,99313.13
2022-10-22T07:25:16.760Z,99313.59
2022-10-22T07:27:49.604Z,99322.75
2022-10-22T07:30:22.409Z,99324.59
2022-10-22T07:32:56.644Z,99338.09
2022-10-22T07:35:29.468Z,99340.56
2022-10-22T07:38:02.510Z,99356.09
2022-10-22T07:40:36.115Z,99358.00
2022-10-22T07:43:08.995Z,99362.44
2022-10-22T07:45:42.087Z,99362.16
2022-10-22T07:48:16.593Z,99369.53
2022-10-22T07:50:50.812Z,99369.66
2022-10-22T07:54:00.016Z,99381.06
2022-10-22T07:56:32.817Z,99379.91
2022-10-22T07:59:05.709Z,99390.78
2022-10-22T08:01:38.596Z,99401.09
2022-10-22T08:04:11.770Z,99404.22
2022-10-22T08:06:47.220Z,99406.09
2022-10-22T08:09:22.208Z,99420.00
2022-10-22T08:11:55.122Z,99415.25
2022-10-22T08:14:28.125Z,99419.06
2022-10-22T08:17:00.933Z,99424.03
2022-10-22T08:19:35.361Z,99429.31
2022-10-22T08:22:08.236Z,99430.03
2022-10-22T08:24:42.657Z,99428.75
2022-10-22T08:27:15.644Z,99427.72
2022-10-22T08:29:48.486Z,99434.00
2022-10-22T08:32:21.389Z,99439.84
2022-10-22T08:34:54.348Z,99443.31
2022-10-22T08:37:27.195Z,99446.06
2022-10-22T08:40:01.602Z,99453.88
2022-10-22T08:42:52.006Z,99452.81
2022-10-22T08:45:31.583Z,99456.47
2022-10-22T08:48:15.074Z,99450.56
2022-10-22T08:50:50.873Z,99458.34
2022-10-22T08:53:28.817Z,99459.91
2022-10-22T08:56:03.068Z,99466.13
2022-10-22T08:58:42.679Z,99460.16
2022-10-22T09:01:19.702Z,99465.28
2022-10-22T09:03:58.629Z,99466.63
2022-10-22T09:06:34.420Z,99463.84
2022-10-22T09:09:13.661Z,99480.91
2022-10-22T09:11:50.674Z,99476.97
2022-10-22T09:14:25.690Z,99463.91
2022-10-22T09:17:17.241Z,99475.06
2022-10-22T09:20:03.679Z,99471.44
2022-10-22T09:22:41.902Z,99471.91
2022-10-22T09:25:22.074Z,99477.03
2022-10-22T09:27:58.704Z,99486.19
2022-10-22T09:30:34.856Z,99476.66
2022-10-22T09:33:15.105Z,99479.03
2022-10-22T09:35:52.879Z,99483.97
2022-10-22T09:38:28.502Z,99483.53
2022-10-22T09:41:03.719Z,99483.81
2022-10-22T09:43:38.383Z,99480.78
2022-10-22T09:46:18.031Z,99484.13
2022-10-22T09:48:59.227Z,99491.47
2022-10-22T09:51:46.714Z,99504.25
2022-10-22T09:54:22.369Z,99506.56
2022-10-22T09:56:58.230Z,99506.91
2022-10-22T09:59:35.139Z,99513.38
2022-10-22T10:02:26.630Z,99516.00
2022-10-22T10:05:08.761Z,99520.41
2022-10-22T10:07:42.299Z,99515.16
2022-10-22T10:10:20.729Z,99522.22
2022-10-22T10:13:02.708Z,99523.44
2022-10-22T10:15:43.241Z,99524.66
2022-10-22T10:18:29.449Z,99520.84
2022-10-22T10:21:11.126Z,99526.66
2022-10-22T10:23:54.447Z,99529.09
2022-10-22T10:26:33.901Z,99531.00
2022-10-22T10:29:27.541Z,99544.13
2022-10-22T10:32:31.712Z,99531.84
2022-10-22T10:35:17.177Z,99534.72
2022-10-22T10:38:05.165Z,99548.53
2022-10-22T10:40:46.124Z,99551.50
2022-10-22T10:43:26.278Z,99555.44
2022-10-22T10:46:09.164Z,99559.84
2022-10-22T10:48:51.701Z,99556.59
2022-10-22T10:51:46.373Z,99552.84
2022-10-22T10:54:29.657Z,99557.34
2022-10-22T10:57:10.431Z,99559.97
2022-10-22T10:59:57.994Z,99567.81
2022-10-22T11:03:04.045Z,99563.59
2022-10-22T11:05:43.147Z,99566.25
2022-10-22T11:08:21.330Z,99561.13
2022-10-22T11:11:00.840Z,99575.44
2022-10-22T11:13:37.839Z,99578.81
2022-10-22T11:16:21.276Z,99570.66
2022-10-22T11:19:03.384Z,99569.16
2022-10-22T11:21:42.052Z,99575.00
2022-10-22T11:24:24.019Z,99572.22
2022-10-22T11:27:02.161Z,99578.78
2022-10-22T11:29:41.390Z,99583.78
2022-10-22T11:32:19.435Z,99581.16
2022-10-22T11:34:56.175Z,99590.09
2022-10-22T11:37:35.144Z,99582.69
2022-10-22T11:40:15.345Z,99592.69
2022-10-22T11:42:53.341Z,99596.19
2022-10-22T11:45:31.810Z,99595.81
2022-10-22T11:48:19.030Z,99590.19
2022-10-22T11:50:56.801Z,99588.56
2022-10-22T11:53:35.379Z,99591.84
2022-10-22T11:56:37.562Z,99586.47
2022-10-22T11:59:39.000Z,99590.50
2022-10-22T12:02:41.834Z,99583.97
2022-10-22T12:05:20.458Z,99592.00
2022-10-22T12:07:57.136Z,99588.44
2022-10-22T12:10:36.832Z,99596.78
2022-10-22T12:13:23.831Z,99583.38
2022-10-22T12:16:00.544Z,99587.09
2022-10-22T12:18:41.072Z,99597.25
2022-10-22T12:21:15.284Z,99585.34
2022-10-22T12:23:48.231Z,99585.28
2022-10-22T12:29:11.415Z,99588.09
2022-10-22T12:31:47.437Z,99588.63
2022-10-22T12:34:23.554Z,99597.59
2022-10-22T12:36:56.631Z,99598.88
2022-10-22T12:39:29.996Z,99597.34
2022-10-22T12:42:06.343Z,99591.50
2022-10-22T12:44:39.234Z,99600.75
2022-10-22T12:47:16.889Z,99589.66
2022-10-22T12:49:51.832Z,99580.69
2022-10-22T12:52:25.854Z,99576.00
2022-10-22T12:54:58.839Z,99578.09
2022-10-22T12:57:33.189Z,99579.66
2022-10-22T13:00:20.668Z,99583.19
2022-10-22T13:02:54.201Z,99580.59
2022-10-22T13:05:28.351Z,99584.78
2022-10-22T13:08:05.514Z,99583.50
2022-10-22T13:10:40.533Z,99583.91
2022-10-22T13:13:33.839Z,99583.03
2022-10-22T13:16:24.225Z,99579.53
2022-10-22T13:18:57.307Z,99575.38
2022-10-22T13:21:35.060Z,99572.81
2022-10-22T13:24:22.534Z,99576.94
2022-10-22T13:26:56.032Z,99575.59
2022-10-22T13:29:30.385Z,99586.63
2022-10-22T13:32:03.260Z,99582.91
2022-10-22T13:34:36.818Z,99591.13
2022-10-22T13:37:10.518Z,99590.69
2022-10-22T13:39:43.351Z,99591.38
2022-10-22T13:42:16.198Z,99583.25
2022-10-22T13:44:50.681Z,99586.53
2022-10-22T13:47:28.950Z,99580.59
2022-10-22T13:50:04.282Z,99590.16
2022-10-22T13:52:39.885Z,99586.69
2022-10-22T13:55:21.481Z,99584.56
2022-10-22T13:57:56.493Z,99589.53
2022-10-22T14:00:30.898Z,99597.19
2022-10-22T14:03:03.910Z,99597.34
2022-10-22T14:05:36.810Z,99604.53
2022-10-22T14:08:12.867Z,99596.97
2022-10-22T14:10:46.046Z,99593.53
2022-10-22T14:13:20.502Z,99590.97
2022-10-22T14:15:54.752Z,99585.09
2022-10-22T14:18:31.659Z,99588.28
2022-10-22T14:21:07.506Z,99581.84
2022-10-22T14:23:41.893Z,99590.84
2022-10-22T14:29:10.752Z,99600.56
2022-10-22T14:31:45.826Z,99596.94
2022-10-22T14:34:18.621Z,99597.25
2022-10-22T14:36:51.418Z,99599.81
2022-10-22T14:39:24.203Z,99591.41
2022-10-22T14:41:57.085Z,99597.50
2022-10-22T14:44:29.875Z,99595.59
2022-10-22T14:47:04.154Z,99594.34
2022-10-22T14:49:37.001Z,99598.94
2022-10-22T14:52:12.905Z,99598.78
2022-10-22T14:54:48.601Z,99587.69
2022-10-22T14:57:21.404Z,99588.94
2022-10-22T14:59:54.909Z,99599.94
2022-10-22T15:02:29.345Z,99603.19
2022-10-22T15:05:02.215Z,99601.66
2022-10-22T15:07:35.381Z,99603.25
2022-10-22T15:10:09.757Z,99606.53
2022-10-22T15:12:43.889Z,99601.66
2022-10-22T15:15:18.242Z,99598.84
2022-10-22T15:17:55.011Z,99601.50
2022-10-22T15:20:28.914Z,99599.13
2022-10-22T15:23:01.728Z,99600.91
2022-10-22T15:25:34.579Z,99599.72
2022-10-22T15:28:09.843Z,99599.22
2022-10-22T15:30:42.970Z,99601.00
2022-10-22T15:33:17.152Z,99601.97
2022-10-22T15:35:50.071Z,99601.06
2022-10-22T15:38:23.770Z,99591.69
2022-10-22T15:41:05.294Z,99595.03
2022-10-22T15:43:38.698Z,99598.75
2022-10-22T15:46:14.059Z,99593.97
2022-10-22T15:48:48.522Z,99590.78
2022-10-22T15:51:22.183Z,99589.63
2022-10-22T15:53:57.167Z,99587.13
2022-10-22T15:56:31.535Z,99585.47
2022-10-22T15:59:05.058Z,99586.31
2022-10-22T16:01:38.586Z,99580.41
2022-10-22T16:04:13.150Z,99583.63
2022-10-22T16:06:47.918Z,99580.91
2022-10-22T16:09:23.089Z,99580.31
2022-10-22T16:11:56.629Z,99580.91
2022-10-22T16:14:29.829Z,99578.03
2022-10-22T16:17:02.653Z,99584.25
2022-10-22T16:19:36.905Z,99582.94
2022-10-22T16:22:13.903Z,99576.16
2022-10-22T16:24:46.683Z,99580.59
2022-10-22T16:27:19.520Z,99582.25
2022-10-22T16:29:52.377Z,99585.81
2022-10-22T16:32:25.216Z,99585.22
2022-10-22T16:34:59.445Z,99578.56
2022-10-22T16:37:32.335Z,99584.91
2022-10-22T16:40:08.176Z,99587.28
2022-10-22T16:42:42.008Z,99584.78
2022-10-22T16:47:53.818Z,99592.31
2022-10-22T16:50:28.483Z,99592.78
2022-10-22T16:53:01.291Z,99594.44
2022-10-22T16:55:37.898Z,99593.59
2022-10-22T16:58:10.743Z,99586.78
2022-10-22T17:00:43.758Z,99583.69
2022-10-22T17:03:16.660Z,99589.06
2022-10-22T17:05:50.865Z,99586.56
2022-10-22T17:08:23.714Z,99603.00
2022-10-22T17:10:56.580Z,99606.53
2022-10-22T17:13:29.396Z,99607.53
2022-10-22T17:16:03.194Z,99609.19
2022-10-22T17:18:37.686Z,99603.94
2022-10-22T17:21:13.482Z,99597.47
2022-10-22T17:23:46.870Z,99594.72
2022-10-22T17:26:22.771Z,99594.00
2022-10-22T17:28:55.927Z,99597.00
2022-10-22T17:31:32.650Z,99605.53
2022-10-22T17:34:07.094Z,99617.00
2022-10-22T17:36:41.313Z,99618.06
2022-10-22T17:39:18.810Z,99624.50
2022-10-22T17:41:51.690Z,99629.88
2022-10-22T17:44:24.527Z,99632.13
2022-10-22T17:46:57.504Z,99630.34
2022-10-22T17:49:30.403Z,99635.38
2022-10-22T17:52:04.759Z,99636.91
2022-10-22T17:54:37.684Z,99631.78
2022-10-22T17:57:10.695Z,99630.13
2022-10-22T17:59:43.661Z,99634.63
2022-10-22T18:02:18.462Z,99636.19
2022-10-22T18:04:52.990Z,99634.53
2022-10-22T18:07:27.392Z,99645.03
2022-10-22T18:10:00.215Z,99636.28
2022-10-22T18:12:33.099Z,99645.94
2022-10-22T18:15:06.856Z,99640.94
2022-10-22T18:17:40.204Z,99637.44
2022-10-22T18:20:13.935Z,99639.56
2022-10-22T18:22:48.135Z,99643.06
2022-10-22T18:25:20.955Z,99641.22
2022-10-22T18:27:53.799Z,99640.06
2022-10-22T18:30:26.556Z,99628.97
2022-10-22T18:32:59.402Z,99637.91
2022-10-22T18:35:33.105Z,99637.78
2022-10-22T18:38:07.317Z,99645.56
2022-10-22T18:40:45.557Z,99642.97
2022-10-22T18:43:19.332Z,99640.78
2022-10-22T18:45:52.270Z,99633.38
2022-10-22T18:48:25.129Z,99643.06
2022-10-22T18:51:03.154Z,99646.31
2022-10-22T18:53:38.449Z,99645.97
2022-10-22T18:56:14.197Z,99644.03
2022-10-22T18:58:49.156Z,99646.56
2022-10-22T19:01:24.345Z,99640.56
2022-10-22T19:03:57.993Z,99636.50
2022-10-22T19:06:34.522Z,99646.50
2022-10-22T19:09:10.204Z,99651.06
2022-10-22T19:11:44.557Z,99654.94
2022-10-22T19:14:19.557Z,99658.97
2022-10-22T19:16:52.425Z,99658.75
2022-10-22T19:19:25.514Z,99657.56
2022-10-22T19:21:59.538Z,99651.50
2022-10-22T19:24:34.011Z,99658.03
2022-10-22T19:27:06.829Z,99653.78
2022-10-22T19:29:39.880Z,99661.00
2022-10-22T19:32:12.778Z,99651.97
2022-10-22T19:34:46.508Z,99654.34
2022-10-22T19:37:19.347Z,99651.50
2022-10-22T19:39:53.600Z,99659.34
2022-10-22T19:42:26.792Z,99651.63
2022-10-22T19:44:59.657Z,99656.22
2022-10-22T19:47:32.577Z,99652.41
2022-10-22T19:50:05.960Z,99652.25
2022-10-22T19:52:38.990Z,99645.56
2022-10-22T19:55:13.449Z,99645.00
2022-10-22T19:57:46.266Z,99652.25
2022-10-22T20:00:19.255Z,99649.88
2022-10-22T20:02:52.072Z,99651.03
2022-10-22T20:05:24.966Z,99647.44
2022-10-22T20:07:57.895Z,99647.34
2022-10-22T20:10:32.345Z,99647.56
2022-10-22T20:13:05.424Z,99649.72
2022-10-22T20:15:38.258Z,99641.94
2022-10-22T20:18:11.078Z,99648.88
2022-10-22T20:20:43.943Z,99649.63
2022-10-22T20:23:16.888Z,99640.97
2022-10-22T20:25:51.087Z,99649.88
2022-10-22T20:28:23.859Z,99641.94
2022-10-22T20:30:56.674Z,99635.56
2022-10-22T20:33:29.644Z,99637.28
2022-10-22T20:36:04.263Z,99633.59
2022-10-22T20:41:18.962Z,99644.69
2022-10-22T20:43:53.929Z,99642.03
2022-10-22T20:46:29.200Z,99641.34
2022-10-22T20:49:04.492Z,99640.28
2022-10-22T20:51:38.350Z,99647.56
2022-10-22T20:54:11.727Z,99645.75
2022-10-22T20:56:47.872Z,99649.09
2022-10-22T20:59:20.749Z,99646.97
2022-10-22T21:01:56.474Z,99650.47
2022-10-22T21:04:30.548Z,99646.78
2022-10-22T21:07:03.377Z,99652.44
2022-10-22T21:09:36.388Z,99661.41
2022-10-22T21:12:10.665Z,99658.31
2022-10-22T21:14:43.489Z,99655.97
2022-10-22T21:17:16.396Z,99656.25
2022-10-22T21:19:49.191Z,99657.28
2022-10-22T21:22:22.067Z,99665.50
2022-10-22T21:24:54.848Z,99660.63
2022-10-22T21:27:29.046Z,99659.25
2022-10-22T21:30:01.848Z,99664.72
2022-10-22T21:32:34.913Z,99659.25
2022-10-22T21:35:08.151Z,99663.06
2022-10-22T21:37:41.157Z,99665.03
2022-10-22T21:40:14.616Z,99654.78
2022-10-22T21:42:50.981Z,99664.06
2022-10-22T21:45:23.877Z,99669.66
2022-10-22T21:47:58.205Z,99675.44
2022-10-22T21:50:31.266Z,99674.50
2022-10-22T21:53:04.068Z,99669.31
2022-10-22T21:55:39.667Z,99670.06
2022-10-22T21:58:13.860Z,99672.41
2022-10-22T22:00:54.922Z,99674.25
2022-10-22T22:03:28.358Z,99668.16
2022-10-22T22:06:01.672Z,99660.09
2022-10-22T22:08:35.063Z,99647.06
2022-10-22T22:11:09.938Z,99652.81
2022-10-22T22:13:44.492Z,99659.28
2022-10-22T22:16:22.412Z,99661.09
2022-10-22T22:19:00.424Z,99657.75
2022-10-22T22:21:33.446Z,99659.91
2022-10-22T22:24:07.625Z,99661.03
2022-10-22T22:26:40.574Z,99662.78
2022-10-22T22:29:15.010Z,99663.09
2022-10-22T22:31:47.910Z,99658.31
2022-10-22T22:34:20.752Z,99657.09
2022-10-22T22:36:53.544Z,99654.31
2022-10-22T22:39:26.692Z,99646.91
2022-10-22T22:41:59.592Z,99646.34
2022-10-22T22:44:33.938Z,99649.25
2022-10-22T22:47:06.752Z,99641.19
2022-10-22T22:49:39.559Z,99645.44
2022-10-22T22:52:12.532Z,99642.63
2022-10-22T22:54:45.353Z,99638.50
2022-10-22T22:57:18.175Z,99649.00
2022-10-22T22:59:52.666Z,99648.66
2022-10-22T23:02:25.468Z,99642.00
2022-10-22T23:04:58.481Z,99634.94
2022-10-22T23:07:31.301Z,99638.13
2022-10-22T23:10:04.527Z,99641.03
2022-10-22T23:12:37.310Z,99628.69
2022-10-22T23:15:12.872Z,99629.16
2022-10-22T23:17:45.683Z,99627.63
2022-10-22T23:20:18.536Z,99627.69
2022-10-22T23:22:51.347Z,99629.28
2022-10-22T23:25:24.182Z,99618.25
2022-10-22T23:27:56.971Z,99616.63
2022-10-22T23:30:31.193Z,99618.78
2022-10-22T23:33:03.982Z,99614.13
2022-10-22T23:35:40.558Z,99611.16
2022-10-22T23:38:13.376Z,99602.66
2022-10-22T23:40:46.179Z,99604.78
2022-10-22T23:43:18.984Z,99608.88
2022-10-22T23:45:53.671Z,99614.72
2022-10-22T23:48:26.595Z,99606.44
2022-10-22T23:51:05.337Z,99612.00
2022-10-22T23:53:38.588Z,99604.00
2022-10-22T23:56:15.241Z,99601.50
2022-10-22T23:58:51.452Z,99597.69
